sensor_id;sensor_type;location;lat;lon;timestamp;temperature;humidity
55711;DHT22;41612;51.994;5.880;2022-10-24T00:00:07;15.80;82.30
55711;DHT22;41612;51.994;5.880;2022-10-24T00:02:34;15.80;82.60
55711;DHT22;41612;51.994;5.880;2022-10-24T00:05:00;15.70;82.80
55711;DHT22;41612;51.994;5.880;2022-10-24T00:07:25;15.70;82.40
55711;DHT22;41612;51.994;5.880;2022-10-24T00:09:51;15.70;82.30
55711;DHT22;41612;51.994;5.880;2022-10-24T00:12:18;15.70;82.60
55711;DHT22;41612;51.994;5.880;2022-10-24T00:14:44;15.70;82.10
55711;DHT22;41612;51.994;5.880;2022-10-24T00:17:10;15.70;83.00
55711;DHT22;41612;51.994;5.880;2022-10-24T00:19:37;15.70;82.80
55711;DHT22;41612;51.994;5.880;2022-10-24T00:22:03;15.60;83.10
55711;DHT22;41612;51.994;5.880;2022-10-24T00:24:29;15.60;82.60
55711;DHT22;41612;51.994;5.880;2022-10-24T00:26:55;15.60;83.20
55711;DHT22;41612;51.994;5.880;2022-10-24T00:29:21;15.50;83.10
55711;DHT22;41612;51.994;5.880;2022-10-24T00:31:46;15.50;83.10
55711;DHT22;41612;51.994;5.880;2022-10-24T00:34:14;15.50;82.80
55711;DHT22;41612;51.994;5.880;2022-10-24T00:36:39;15.50;82.70
55711;DHT22;41612;51.994;5.880;2022-10-24T00:39:05;15.50;82.70
55711;DHT22;41612;51.994;5.880;2022-10-24T00:41:37;15.50;82.90
55711;DHT22;41612;51.994;5.880;2022-10-24T00:46:40;15.40;82.50
55711;DHT22;41612;51.994;5.880;2022-10-24T00:49:11;15.40;83.00
55711;DHT22;41612;51.994;5.880;2022-10-24T00:51:39;15.40;83.00
55711;DHT22;41612;51.994;5.880;2022-10-24T00:54:07;15.50;83.00
55711;DHT22;41612;51.994;5.880;2022-10-24T00:56:38;15.50;82.90
55711;DHT22;41612;51.994;5.880;2022-10-24T00:59:08;15.40;82.90
55711;DHT22;41612;51.994;5.880;2022-10-24T01:01:35;15.50;82.70
55711;DHT22;41612;51.994;5.880;2022-10-24T01:04:02;15.50;82.40
55711;DHT22;41612;51.994;5.880;2022-10-24T01:09:49;15.50;82.30
55711;DHT22;41612;51.994;5.880;2022-10-24T01:20:47;15.50;80.80
55711;DHT22;41612;51.994;5.880;2022-10-24T01:25:32;15.60;80.20
55711;DHT22;41612;51.994;5.880;2022-10-24T01:28:29;15.70;80.00
55711;DHT22;41612;51.994;5.880;2022-10-24T01:31:57;15.80;79.40
55711;DHT22;41612;51.994;5.880;2022-10-24T01:34:32;15.80;79.20
55711;DHT22;41612;51.994;5.880;2022-10-24T01:37:08;15.90;79.10
55711;DHT22;41612;51.994;5.880;2022-10-24T01:39:41;15.90;78.60
55711;DHT22;41612;51.994;5.880;2022-10-24T01:42:10;15.90;78.60
55711;DHT22;41612;51.994;5.880;2022-10-24T01:44:44;15.90;78.40
55711;DHT22;41612;51.994;5.880;2022-10-24T01:47:18;15.80;78.60
55711;DHT22;41612;51.994;5.880;2022-10-24T01:49:58;15.80;78.70
55711;DHT22;41612;51.994;5.880;2022-10-24T01:52:29;15.80;78.60
55711;DHT22;41612;51.994;5.880;2022-10-24T01:54:55;15.80;78.40
55711;DHT22;41612;51.994;5.880;2022-10-24T01:57:29;15.80;78.30
55711;DHT22;41612;51.994;5.880;2022-10-24T01:59:55;15.80;78.10
55711;DHT22;41612;51.994;5.880;2022-10-24T02:02:27;15.90;77.80
55711;DHT22;41612;51.994;5.880;2022-10-24T02:05:01;15.90;77.70
55711;DHT22;41612;51.994;5.880;2022-10-24T02:07:28;15.80;77.70
55711;DHT22;41612;51.994;5.880;2022-10-24T02:10:06;15.90;77.60
55711;DHT22;41612;51.994;5.880;2022-10-24T02:12:35;15.90;77.00
55711;DHT22;41612;51.994;5.880;2022-10-24T02:15:06;15.90;77.20
55711;DHT22;41612;51.994;5.880;2022-10-24T02:17:35;15.90;77.30
55711;DHT22;41612;51.994;5.880;2022-10-24T02:20:02;15.90;77.10
55711;DHT22;41612;51.994;5.880;2022-10-24T02:23:00;15.90;76.90
55711;DHT22;41612;51.994;5.880;2022-10-24T02:25:34;15.90;76.80
55711;DHT22;41612;51.994;5.880;2022-10-24T02:28:06;15.90;76.50
55711;DHT22;41612;51.994;5.880;2022-10-24T02:30:36;16.00;76.40
55711;DHT22;41612;51.994;5.880;2022-10-24T02:33:04;16.00;76.10
55711;DHT22;41612;51.994;5.880;2022-10-24T02:35:31;16.00;75.70
55711;DHT22;41612;51.994;5.880;2022-10-24T02:40:37;16.10;75.10
55711;DHT22;41612;51.994;5.880;2022-10-24T02:43:05;16.10;75.30
55711;DHT22;41612;51.994;5.880;2022-10-24T02:45:33;16.10;74.80
55711;DHT22;41612;51.994;5.880;2022-10-24T02:48:02;16.10;74.80
55711;DHT22;41612;51.994;5.880;2022-10-24T02:50:30;16.10;75.10
55711;DHT22;41612;51.994;5.880;2022-10-24T02:52:56;16.10;74.90
55711;DHT22;41612;51.994;5.880;2022-10-24T02:55:22;16.10;74.60
55711;DHT22;41612;51.994;5.880;2022-10-24T02:57:48;16.00;74.80
55711;DHT22;41612;51.994;5.880;2022-10-24T03:00:14;16.10;74.60
55711;DHT22;41612;51.994;5.880;2022-10-24T03:02:43;16.00;74.80
55711;DHT22;41612;51.994;5.880;2022-10-24T03:05:09;16.00;74.30
55711;DHT22;41612;51.994;5.880;2022-10-24T03:07:35;16.10;74.40
55711;DHT22;41612;51.994;5.880;2022-10-24T03:10:00;16.10;74.00
55711;DHT22;41612;51.994;5.880;2022-10-24T03:12:26;16.10;74.30
55711;DHT22;41612;51.994;5.880;2022-10-24T03:14:52;16.10;73.70
55711;DHT22;41612;51.994;5.880;2022-10-24T03:17:18;16.10;73.90
55711;DHT22;41612;51.994;5.880;2022-10-24T03:19:44;16.10;73.70
55711;DHT22;41612;51.994;5.880;2022-10-24T03:22:10;16.10;73.80
55711;DHT22;41612;51.994;5.880;2022-10-24T03:24:36;16.10;73.60
55711;DHT22;41612;51.994;5.880;2022-10-24T03:27:01;16.10;73.40
55711;DHT22;41612;51.994;5.880;2022-10-24T03:29:27;16.10;73.40
55711;DHT22;41612;51.994;5.880;2022-10-24T03:31:53;16.10;73.60
55711;DHT22;41612;51.994;5.880;2022-10-24T03:34:18;16.10;73.20
55711;DHT22;41612;51.994;5.880;2022-10-24T03:36:44;16.10;73.40
55711;DHT22;41612;51.994;5.880;2022-10-24T03:39:10;16.00;73.20
55711;DHT22;41612;51.994;5.880;2022-10-24T03:41:36;16.00;73.40
55711;DHT22;41612;51.994;5.880;2022-10-24T03:44:02;16.00;72.20
55711;DHT22;41612;51.994;5.880;2022-10-24T03:46:27;16.10;72.90
55711;DHT22;41612;51.994;5.880;2022-10-24T03:48:53;16.10;72.50
55711;DHT22;41612;51.994;5.880;2022-10-24T03:51:19;16.10;72.60
55711;DHT22;41612;51.994;5.880;2022-10-24T03:53:44;16.10;72.20
55711;DHT22;41612;51.994;5.880;2022-10-24T03:56:10;16.10;72.50
55711;DHT22;41612;51.994;5.880;2022-10-24T03:58:36;16.20;72.80
55711;DHT22;41612;51.994;5.880;2022-10-24T04:01:02;16.00;72.20
55711;DHT22;41612;51.994;5.880;2022-10-24T04:03:28;16.00;72.70
55711;DHT22;41612;51.994;5.880;2022-10-24T04:05:54;16.00;72.60
55711;DHT22;41612;51.994;5.880;2022-10-24T04:08:19;16.00;72.00
55711;DHT22;41612;51.994;5.880;2022-10-24T04:10:45;16.00;72.00
55711;DHT22;41612;51.994;5.880;2022-10-24T04:13:11;16.00;72.40
55711;DHT22;41612;51.994;5.880;2022-10-24T04:15:37;16.00;71.70
55711;DHT22;41612;51.994;5.880;2022-10-24T04:18:04;16.00;71.70
55711;DHT22;41612;51.994;5.880;2022-10-24T04:20:29;16.00;71.90
55711;DHT22;41612;51.994;5.880;2022-10-24T04:22:55;16.10;72.50
55711;DHT22;41612;51.994;5.880;2022-10-24T04:25:21;16.10;71.70
55711;DHT22;41612;51.994;5.880;2022-10-24T04:27:47;16.10;72.10
55711;DHT22;41612;51.994;5.880;2022-10-24T04:30:13;16.10;72.40
55711;DHT22;41612;51.994;5.880;2022-10-24T04:32:39;16.00;72.60
55711;DHT22;41612;51.994;5.880;2022-10-24T04:35:05;16.00;72.60
55711;DHT22;41612;51.994;5.880;2022-10-24T04:37:32;16.00;72.20
55711;DHT22;41612;51.994;5.880;2022-10-24T04:39:57;15.90;72.30
55711;DHT22;41612;51.994;5.880;2022-10-24T04:42:23;15.90;72.40
55711;DHT22;41612;51.994;5.880;2022-10-24T04:44:50;15.80;72.70
55711;DHT22;41612;51.994;5.880;2022-10-24T04:47:16;15.80;72.90
55711;DHT22;41612;51.994;5.880;2022-10-24T04:49:42;15.80;72.80
55711;DHT22;41612;51.994;5.880;2022-10-24T04:52:07;15.80;72.90
55711;DHT22;41612;51.994;5.880;2022-10-24T04:54:33;15.70;72.90
55711;DHT22;41612;51.994;5.880;2022-10-24T04:56:59;15.80;73.10
55711;DHT22;41612;51.994;5.880;2022-10-24T04:59:25;15.80;73.10
55711;DHT22;41612;51.994;5.880;2022-10-24T05:01:50;15.70;73.50
55711;DHT22;41612;51.994;5.880;2022-10-24T05:04:16;15.70;73.40
55711;DHT22;41612;51.994;5.880;2022-10-24T05:06:42;15.80;73.50
55711;DHT22;41612;51.994;5.880;2022-10-24T05:09:08;15.80;73.40
55711;DHT22;41612;51.994;5.880;2022-10-24T05:14:12;15.80;73.30
55711;DHT22;41612;51.994;5.880;2022-10-24T05:16:39;15.80;73.30
55711;DHT22;41612;51.994;5.880;2022-10-24T05:19:05;15.70;73.10
55711;DHT22;41612;51.994;5.880;2022-10-24T05:21:31;15.80;73.40
55711;DHT22;41612;51.994;5.880;2022-10-24T05:23:58;15.80;73.00
55711;DHT22;41612;51.994;5.880;2022-10-24T05:26:24;15.80;73.00
55711;DHT22;41612;51.994;5.880;2022-10-24T05:28:50;15.90;73.40
55711;DHT22;41612;51.994;5.880;2022-10-24T05:31:16;15.90;73.00
55711;DHT22;41612;51.994;5.880;2022-10-24T05:33:41;16.00;72.90
55711;DHT22;41612;51.994;5.880;2022-10-24T05:36:09;16.00;72.60
55711;DHT22;41612;51.994;5.880;2022-10-24T05:38:35;16.00;72.30
55711;DHT22;41612;51.994;5.880;2022-10-24T05:41:01;16.00;72.10
55711;DHT22;41612;51.994;5.880;2022-10-24T05:43:27;16.00;72.10
55711;DHT22;41612;51.994;5.880;2022-10-24T05:45:53;16.00;71.80
55711;DHT22;41612;51.994;5.880;2022-10-24T05:48:19;16.00;72.30
55711;DHT22;41612;51.994;5.880;2022-10-24T05:50:44;16.00;72.40
55711;DHT22;41612;51.994;5.880;2022-10-24T05:53:10;16.00;72.40
55711;DHT22;41612;51.994;5.880;2022-10-24T05:55:37;16.00;72.10
55711;DHT22;41612;51.994;5.880;2022-10-24T05:58:03;16.00;72.30
55711;DHT22;41612;51.994;5.880;2022-10-24T06:00:31;16.00;71.80
55711;DHT22;41612;51.994;5.880;2022-10-24T06:02:59;16.00;71.70
55711;DHT22;41612;51.994;5.880;2022-10-24T06:05:25;16.00;71.70
55711;DHT22;41612;51.994;5.880;2022-10-24T06:07:51;16.00;71.80
55711;DHT22;41612;51.994;5.880;2022-10-24T06:10:17;16.00;71.90
55711;DHT22;41612;51.994;5.880;2022-10-24T06:12:46;16.10;72.20
55711;DHT22;41612;51.994;5.880;2022-10-24T06:15:16;16.00;72.30
55711;DHT22;41612;51.994;5.880;2022-10-24T06:17:45;16.00;72.70
55711;DHT22;41612;51.994;5.880;2022-10-24T06:20:16;15.90;72.60
55711;DHT22;41612;51.994;5.880;2022-10-24T06:22:44;15.90;72.50
55711;DHT22;41612;51.994;5.880;2022-10-24T06:25:13;15.90;72.70
55711;DHT22;41612;51.994;5.880;2022-10-24T06:27:39;15.90;72.90
55711;DHT22;41612;51.994;5.880;2022-10-24T06:30:08;16.00;73.00
55711;DHT22;41612;51.994;5.880;2022-10-24T06:32:35;15.90;73.10
55711;DHT22;41612;51.994;5.880;2022-10-24T06:35:01;15.90;73.00
55711;DHT22;41612;51.994;5.880;2022-10-24T06:37:32;15.90;73.00
55711;DHT22;41612;51.994;5.880;2022-10-24T06:40:00;15.90;73.00
55711;DHT22;41612;51.994;5.880;2022-10-24T06:42:37;15.90;72.80
55711;DHT22;41612;51.994;5.880;2022-10-24T06:45:06;15.90;73.00
55711;DHT22;41612;51.994;5.880;2022-10-24T06:47:34;15.90;73.00
55711;DHT22;41612;51.994;5.880;2022-10-24T06:50:00;15.90;73.00
55711;DHT22;41612;51.994;5.880;2022-10-24T06:52:28;15.90;73.10
55711;DHT22;41612;51.994;5.880;2022-10-24T06:54:54;15.90;73.00
55711;DHT22;41612;51.994;5.880;2022-10-24T06:57:20;16.00;73.00
55711;DHT22;41612;51.994;5.880;2022-10-24T06:59:48;15.90;73.10
55711;DHT22;41612;51.994;5.880;2022-10-24T07:02:27;16.00;73.10
55711;DHT22;41612;51.994;5.880;2022-10-24T07:04:53;16.00;72.90
55711;DHT22;41612;51.994;5.880;2022-10-24T07:07:20;16.00;72.90
55711;DHT22;41612;51.994;5.880;2022-10-24T07:09:59;16.10;72.90
